Terminal Aerodrome Forecast
Issued by NWS

Home | Current Version | Previous Version | Text Only | Print | Product List | Glossary On
Versions: 1 2 3 4 5 6 7 8 9 10 11 12 13 14 15 16 17 18 19 20 21 22
000
FTUS41 KBOX 201124
TAFHYA
TAF
KHYA 201124Z 2012/2112 22014G23KT 2SM BR OVC008
      TEMPO 2012/2016 1/2SM FG OVC003
     FM202000 24010G23KT 2SM -SHRA BR BKN015
     FM202200 25007KT 2SM BR BKN025
     FM210400 32005KT 5SM BR BKN025
     FM210700 36005KT P6SM SCT060=

USA.gov is the U.S. government's official web portal to all federal, state and local government web resources and services.